Time;durP1;ratioP1;P1;durP2;ratioP2;P2;SDS_P1;SDS_P2;PMS_P1;PMS_P2;Temp;Humidity;BMP_temperature;BMP_pressure;BME280_temperature;BME280_humidity;BME280_pressure;Samples;Min_cycle;Max_cycle;Signal;HPM_P1;HPM_P2
2021/08/15 00:02:15;;;;;;;8.38;6.03;;;22.70;89.90;;;;;;4973817;28;20049;-76
2021/08/15 00:04:40;;;;;;;8.18;6.30;;;22.70;90.00;;;;;;4972887;28;20534;-76
2021/08/15 00:07:06;;;;;;;10.57;6.50;;;22.70;90.00;;;;;;4971933;28;20027;-76
2021/08/15 00:09:32;;;;;;;10.75;6.65;;;22.70;90.10;;;;;;4972631;28;20031;-76
2021/08/15 00:11:58;;;;;;;8.18;5.78;;;22.70;90.10;;;;;;4972110;28;20042;-76
2021/08/15 00:14:23;;;;;;;12.18;7.13;;;22.70;90.00;;;;;;4972907;28;20023;-76
2021/08/15 00:16:49;;;;;;;9.05;5.93;;;22.70;90.00;;;;;;4973382;28;20157;-76
2021/08/15 00:19:14;;;;;;;13.23;6.60;;;22.60;90.20;;;;;;4966570;28;20348;-76
2021/08/15 00:21:40;;;;;;;10.15;6.40;;;22.60;90.20;;;;;;4971839;28;20511;-76
2021/08/15 00:24:07;;;;;;;10.82;7.13;;;22.60;90.30;;;;;;4972743;28;20105;-77
2021/08/15 00:26:33;;;;;;;11.70;6.78;;;22.60;90.30;;;;;;4972595;28;20022;-78
2021/08/15 00:28:59;;;;;;;10.82;6.50;;;22.50;90.40;;;;;;4973557;28;20367;-77
2021/08/15 00:31:27;;;;;;;12.52;7.20;;;22.50;90.60;;;;;;4973001;28;20029;-77
2021/08/15 00:33:54;;;;;;;9.15;6.47;;;22.50;90.60;;;;;;4973505;28;20042;-77
2021/08/15 00:36:20;;;;;;;11.32;6.90;;;22.50;90.60;;;;;;4973353;28;20122;-77
2021/08/15 00:38:46;;;;;;;10.90;6.60;;;22.50;90.50;;;;;;4991831;28;20051;-77
2021/08/15 00:41:12;;;;;;;12.10;7.20;;;22.50;90.50;;;;;;4993538;28;20018;-77
2021/08/15 00:43:38;;;;;;;8.52;6.47;;;22.50;90.40;;;;;;4993087;28;20100;-77
2021/08/15 00:46:12;;;;;;;10.32;6.80;;;22.50;90.50;;;;;;4992447;28;20439;-77
2021/08/15 00:48:39;;;;;;;11.02;6.97;;;22.60;90.50;;;;;;4993191;28;20023;-77
2021/08/15 00:51:05;;;;;;;9.77;6.63;;;22.60;90.40;;;;;;4992703;28;20441;-77
2021/08/15 00:53:35;;;;;;;11.68;7.00;;;22.60;90.40;;;;;;4993653;28;20114;-77
2021/08/15 00:56:03;;;;;;;10.52;7.15;;;22.60;90.40;;;;;;4991842;28;20053;-77
2021/08/15 00:58:31;;;;;;;8.75;6.50;;;22.50;90.40;;;;;;4993592;28;20026;-77
2021/08/15 01:01:10;;;;;;;12.57;6.82;;;22.50;90.50;;;;;;4991563;28;20045;-76
2021/08/15 01:03:40;;;;;;;10.77;7.22;;;22.50;90.40;;;;;;4992575;28;20026;-77
2021/08/15 01:06:07;;;;;;;8.98;6.28;;;22.50;90.50;;;;;;4992689;28;20068;-77
2021/08/15 01:08:37;;;;;;;13.30;7.28;;;22.50;90.50;;;;;;4996553;28;20417;-77
2021/08/15 01:11:04;;;;;;;8.10;6.55;;;22.50;90.60;;;;;;4995921;28;20026;-75
2021/08/15 01:13:31;;;;;;;10.30;6.50;;;22.40;90.70;;;;;;4997352;28;20041;-78
2021/08/15 01:15:56;;;;;;;9.82;6.70;;;22.40;90.80;;;;;;4996942;28;20461;-78
2021/08/15 01:18:24;;;;;;;10.88;6.63;;;22.40;90.80;;;;;;4996364;28;20022;-78
2021/08/15 01:20:56;;;;;;;10.27;6.88;;;22.40;90.80;;;;;;4996886;28;20108;-78
2021/08/15 01:23:21;;;;;;;12.55;6.88;;;22.40;90.80;;;;;;4997323;28;20024;-78
2021/08/15 01:25:47;;;;;;;9.15;6.50;;;22.40;90.70;;;;;;4996888;28;20022;-77
2021/08/15 01:28:17;;;;;;;11.35;7.10;;;22.40;90.70;;;;;;4995949;28;20022;-78
2021/08/15 01:30:43;;;;;;;9.77;6.93;;;22.40;90.80;;;;;;4996712;28;20026;-78
2021/08/15 01:33:22;;;;;;;10.45;7.13;;;22.30;90.90;;;;;;4996002;28;20482;-78
2021/08/15 01:35:48;;;;;;;10.55;6.70;;;22.30;90.80;;;;;;4995433;28;20471;-78
2021/08/15 01:38:13;;;;;;;11.23;6.60;;;22.30;90.90;;;;;;4995582;28;20078;-77
2021/08/15 01:40:39;;;;;;;10.48;6.43;;;22.40;90.70;;;;;;4996995;28;20530;-77
2021/08/15 01:43:05;;;;;;;10.20;6.32;;;22.40;90.50;;;;;;4995423;28;20030;-77
2021/08/15 01:45:31;;;;;;;9.75;6.18;;;22.30;90.60;;;;;;4996873;28;20050;-77
2021/08/15 01:47:56;;;;;;;10.93;6.35;;;22.30;90.30;;;;;;4995154;28;20068;-78
2021/08/15 01:50:22;;;;;;;11.43;6.40;;;22.30;90.10;;;;;;4995848;28;20023;-78
2021/08/15 01:52:47;;;;;;;8.85;6.20;;;22.30;90.10;;;;;;4996242;28;20130;-78
2021/08/15 01:55:13;;;;;;;9.10;6.15;;;22.30;89.80;;;;;;4996784;28;20034;-77
2021/08/15 01:57:39;;;;;;;10.85;5.72;;;22.30;90.00;;;;;;4996714;28;20026;-77
2021/08/15 02:00:05;;;;;;;9.63;5.93;;;22.30;89.60;;;;;;4994897;28;20367;-74
2021/08/15 02:02:31;;;;;;;10.82;5.70;;;22.20;89.70;;;;;;4995424;28;20048;-77
2021/08/15 02:04:56;;;;;;;8.73;5.18;;;22.30;88.40;;;;;;4994763;28;20436;-77
2021/08/15 02:07:22;;;;;;;6.80;5.15;;;22.30;87.80;;;;;;4996708;28;20030;-77
2021/08/15 02:09:48;;;;;;;10.25;5.78;;;22.20;87.60;;;;;;4994562;28;20428;-78
2021/08/15 02:12:13;;;;;;;8.30;5.28;;;22.20;87.30;;;;;;4995066;28;20121;-77
2021/08/15 02:14:39;;;;;;;9.63;5.20;;;22.20;87.10;;;;;;4995077;28;20455;-77
2021/08/15 02:17:04;;;;;;;7.45;5.18;;;22.20;87.20;;;;;;4994080;28;20053;-77
2021/08/15 02:19:30;;;;;;;7.85;5.15;;;22.20;87.20;;;;;;4994901;28;20477;-77
2021/08/15 02:21:55;;;;;;;7.28;4.95;;;22.20;86.80;;;;;;4994327;28;20030;-77
2021/08/15 02:24:21;;;;;;;8.82;5.30;;;22.20;85.80;;;;;;4995008;28;20026;-74
2021/08/15 02:26:47;;;;;;;8.25;5.07;;;22.10;86.00;;;;;;4995721;28;20054;-75
2021/08/15 02:29:12;;;;;;;7.80;4.60;;;22.00;87.10;;;;;;4994796;28;20113;-78
2021/08/15 02:31:38;;;;;;;7.53;4.53;;;22.00;87.10;;;;;;4996010;28;20027;-78
2021/08/15 02:34:04;;;;;;;7.30;4.85;;;21.90;86.70;;;;;;4994278;28;20038;-78
2021/08/15 02:36:29;;;;;;;8.77;5.50;;;21.90;86.90;;;;;;4996769;28;20023;-77
2021/08/15 02:38:55;;;;;;;8.70;5.38;;;21.90;86.90;;;;;;4997331;28;20041;-78
2021/08/15 02:41:21;;;;;;;9.02;4.95;;;21.90;86.30;;;;;;4997867;28;20033;-78
2021/08/15 02:43:46;;;;;;;5.82;4.68;;;21.80;86.00;;;;;;4997300;28;20025;-78
2021/08/15 02:46:12;;;;;;;8.30;4.95;;;21.80;85.60;;;;;;4997907;28;20348;-78
2021/08/15 02:48:38;;;;;;;9.35;4.95;;;21.90;85.10;;;;;;4997671;28;20414;-78
2021/08/15 02:51:04;;;;;;;10.55;5.32;;;21.80;85.10;;;;;;4997143;28;20030;-78
2021/08/15 02:53:29;;;;;;;8.05;5.00;;;21.70;85.40;;;;;;4997720;28;20180;-77
2021/08/15 02:55:55;;;;;;;9.75;4.70;;;21.70;86.00;;;;;;4997136;28;20343;-78
2021/08/15 02:58:21;;;;;;;9.27;5.00;;;21.60;86.20;;;;;;4997543;28;20018;-78
2021/08/15 03:00:46;;;;;;;8.43;4.82;;;21.60;86.00;;;;;;5014489;28;20021;-78
2021/08/15 03:03:12;;;;;;;7.95;4.30;;;21.50;85.00;;;;;;4997748;28;20049;-77
2021/08/15 03:05:37;;;;;;;10.40;5.03;;;21.60;84.30;;;;;;5014869;28;20028;-77
2021/08/15 03:08:03;;;;;;;7.40;3.85;;;21.50;84.50;;;;;;4996726;28;20038;-78
2021/08/15 03:10:29;;;;;;;7.15;4.35;;;21.50;84.20;;;;;;5014847;28;20033;-78
2021/08/15 03:12:54;;;;;;;6.28;4.40;;;21.50;84.30;;;;;;5014392;28;20029;-78
2021/08/15 03:15:20;;;;;;;6.80;3.78;;;21.40;84.40;;;;;;5014889;28;20030;-78
2021/08/15 03:17:46;;;;;;;11.35;4.50;;;21.40;84.70;;;;;;4996847;28;20032;-78
2021/08/15 03:20:14;;;;;;;10.80;4.30;;;21.30;84.50;;;;;;4997140;28;20113;-77
2021/08/15 03:22:39;;;;;;;6.95;4.40;;;21.30;84.50;;;;;;5014666;28;20029;-77
2021/08/15 03:25:06;;;;;;;6.10;4.13;;;21.30;84.60;;;;;;4996451;28;20069;-77
2021/08/15 03:27:31;;;;;;;6.80;4.47;;;21.20;85.00;;;;;;5014411;28;20042;-77
2021/08/15 03:29:57;;;;;;;5.68;4.18;;;21.20;84.90;;;;;;4995318;28;20072;-77
2021/08/15 03:32:22;;;;;;;8.50;4.47;;;21.20;85.00;;;;;;5014052;28;20376;-77
2021/08/15 03:34:48;;;;;;;9.52;4.57;;;21.20;84.90;;;;;;4996317;28;20562;-78
2021/08/15 03:37:14;;;;;;;5.18;4.10;;;21.20;84.80;;;;;;5013341;28;20531;-77
2021/08/15 03:39:40;;;;;;;10.65;3.95;;;21.10;84.80;;;;;;4996506;28;20029;-77
2021/08/15 03:42:06;;;;;;;8.07;4.20;;;21.10;85.00;;;;;;5013762;28;20378;-77
2021/08/15 03:44:32;;;;;;;7.18;4.35;;;21.00;85.10;;;;;;5014154;28;20061;-74
2021/08/15 03:46:58;;;;;;;7.95;4.18;;;21.10;85.00;;;;;;4995560;28;20033;-74
2021/08/15 03:49:26;;;;;;;5.22;3.88;;;21.00;84.70;;;;;;4995668;28;20026;-75
2021/08/15 03:51:52;;;;;;;9.88;4.50;;;21.00;84.80;;;;;;4995673;28;20033;-74
2021/08/15 03:54:20;;;;;;;7.50;4.15;;;21.00;84.70;;;;;;5013801;28;20034;-75
2021/08/15 03:56:47;;;;;;;7.07;4.22;;;20.90;84.60;;;;;;5013736;28;20022;-74
2021/08/15 03:59:12;;;;;;;9.18;3.92;;;20.80;85.10;;;;;;4995439;28;20037;-74
2021/08/15 04:01:38;;;;;;;7.15;3.90;;;20.80;85.40;;;;;;5013308;28;20030;-75
2021/08/15 04:04:04;;;;;;;7.32;4.53;;;20.70;85.60;;;;;;4995134;28;20026;-77
2021/08/15 04:06:29;;;;;;;8.98;4.47;;;20.70;85.60;;;;;;4995639;28;20084;-75
2021/08/15 04:08:56;;;;;;;6.20;4.25;;;20.70;85.70;;;;;;5012997;28;20033;-75
2021/08/15 04:11:22;;;;;;;6.55;3.92;;;20.70;86.00;;;;;;4995920;28;20045;-75
2021/08/15 04:13:47;;;;;;;6.72;4.28;;;20.70;86.00;;;;;;4995688;28;20502;-75
2021/08/15 04:16:13;;;;;;;10.52;4.75;;;20.60;86.10;;;;;;5013066;28;20026;-75
2021/08/15 04:18:39;;;;;;;6.57;3.90;;;20.70;86.00;;;;;;4995548;28;20033;-75
2021/08/15 04:21:04;;;;;;;5.32;3.80;;;20.60;86.20;;;;;;5012777;28;20068;-75
2021/08/15 04:23:31;;;;;;;7.93;4.10;;;20.70;85.80;;;;;;4995896;28;20030;-75
2021/08/15 04:25:57;;;;;;;6.78;4.32;;;20.70;85.60;;;;;;4994340;28;20116;-74
2021/08/15 04:28:23;;;;;;;7.53;3.72;;;20.70;85.10;;;;;;5012479;28;20068;-75
2021/08/15 04:30:48;;;;;;;9.02;4.60;;;20.80;85.30;;;;;;4995160;28;20026;-75
2021/08/15 04:33:18;;;;;;;8.95;4.35;;;20.80;85.00;;;;;;4994867;28;20038;-74
2021/08/15 04:35:44;;;;;;;6.78;3.63;;;20.80;85.20;;;;;;4995331;28;20045;-77
2021/08/15 04:38:10;;;;;;;7.63;3.67;;;20.80;85.00;;;;;;5011814;28;20491;-77
2021/08/15 04:40:35;;;;;;;7.00;3.83;;;20.80;84.90;;;;;;4995450;28;20021;-77
2021/08/15 04:43:01;;;;;;;9.20;4.32;;;20.80;84.50;;;;;;5012194;28;20033;-75
2021/08/15 04:45:26;;;;;;;7.03;3.83;;;20.80;84.40;;;;;;4995090;28;20033;-75
2021/08/15 04:47:52;;;;;;;6.53;3.70;;;20.80;84.40;;;;;;4995129;28;20026;-73
2021/08/15 04:50:18;;;;;;;6.40;3.80;;;20.80;84.60;;;;;;4994840;28;20053;-75
2021/08/15 04:52:43;;;;;;;6.72;3.33;;;20.80;84.20;;;;;;5012846;28;20138;-75
2021/08/15 04:55:10;;;;;;;7.63;3.47;;;20.80;83.90;;;;;;5011938;28;20498;-75
2021/08/15 04:57:36;;;;;;;7.25;3.60;;;20.80;82.90;;;;;;5012981;28;20030;-75
2021/08/15 05:00:02;;;;;;;5.72;3.30;;;20.80;82.30;;;;;;4994464;28;20037;-75
2021/08/15 05:02:27;;;;;;;6.32;3.38;;;20.80;82.70;;;;;;4995323;28;20168;-77
2021/08/15 05:04:53;;;;;;;6.25;3.20;;;20.80;83.00;;;;;;4994719;28;20116;-76
2021/08/15 05:07:19;;;;;;;5.60;3.13;;;20.80;83.30;;;;;;4994524;28;20040;-75
2021/08/15 05:09:44;;;;;;;9.02;3.28;;;20.80;83.30;;;;;;4995229;28;20052;-75
2021/08/15 05:12:10;;;;;;;6.88;3.50;;;20.80;83.30;;;;;;4994424;28;20469;-75
2021/08/15 05:14:35;;;;;;;11.00;3.17;;;20.90;83.00;;;;;;5012635;28;20030;-75
2021/08/15 05:17:01;;;;;;;6.95;3.50;;;20.90;83.10;;;;;;4993904;28;20029;-75
2021/08/15 05:19:27;;;;;;;6.53;3.25;;;20.90;83.50;;;;;;4994927;28;20026;-75
2021/08/15 05:21:52;;;;;;;6.25;3.33;;;20.90;83.10;;;;;;4994948;28;20029;-75
2021/08/15 05:24:18;;;;;;;8.18;3.50;;;20.80;82.30;;;;;;4994402;28;20033;-75
2021/08/15 05:26:44;;;;;;;6.72;3.40;;;20.90;82.50;;;;;;4994942;28;20030;-75
2021/08/15 05:29:10;;;;;;;6.20;3.38;;;20.80;82.20;;;;;;4993887;28;20058;-76
2021/08/15 05:31:35;;;;;;;4.88;3.20;;;20.80;82.70;;;;;;4995078;28;20153;-75
2021/08/15 05:34:01;;;;;;;7.07;3.80;;;20.90;83.40;;;;;;5011467;28;20466;-76
2021/08/15 05:36:27;;;;;;;5.47;2.95;;;20.90;82.30;;;;;;4994680;28;20039;-75
2021/08/15 05:38:52;;;;;;;6.07;3.50;;;20.90;82.50;;;;;;5012182;28;20038;-75
2021/08/15 05:41:18;;;;;;;5.47;3.15;;;20.90;83.00;;;;;;4993032;28;20390;-75
2021/08/15 05:43:44;;;;;;;5.95;3.20;;;21.00;83.30;;;;;;4995007;28;20386;-75
2021/08/15 05:46:10;;;;;;;5.70;2.88;;;20.90;82.40;;;;;;4994088;28;20057;-75
2021/08/15 05:48:36;;;;;;;11.02;3.80;;;21.00;82.70;;;;;;4989872;28;20054;-76
2021/08/15 05:51:03;;;;;;;7.57;3.60;;;21.10;82.40;;;;;;4988774;28;20033;-76
2021/08/15 05:53:29;;;;;;;4.82;3.15;;;21.10;81.10;;;;;;4988717;28;20038;-76
2021/08/15 05:55:55;;;;;;;5.70;3.72;;;21.10;81.00;;;;;;5015150;28;20026;-76
2021/08/15 05:58:20;;;;;;;6.38;3.15;;;21.20;80.80;;;;;;5014634;28;20037;-76
2021/08/15 06:00:49;;;;;;;5.22;2.63;;;21.10;80.60;;;;;;5015507;28;20022;-76
2021/08/15 06:03:14;;;;;;;7.28;3.00;;;21.20;81.20;;;;;;5015318;28;20034;-76
2021/08/15 06:05:42;;;;;;;10.85;3.03;;;21.10;80.50;;;;;;5001162;28;20030;-76
2021/08/15 06:08:08;;;;;;;5.60;2.95;;;21.20;80.50;;;;;;4995566;28;20065;-76
2021/08/15 06:10:34;;;;;;;7.43;3.10;;;21.20;80.30;;;;;;4989263;28;20467;-76
2021/08/15 06:13:00;;;;;;;9.73;3.13;;;21.20;80.50;;;;;;5008072;28;20076;-76
2021/08/15 06:15:26;;;;;;;5.20;3.10;;;21.20;80.60;;;;;;5008405;28;20029;-76
2021/08/15 06:17:51;;;;;;;6.95;3.13;;;21.20;80.90;;;;;;5017647;28;20441;-76
2021/08/15 06:20:17;;;;;;;5.00;2.88;;;21.30;80.90;;;;;;4997272;28;20110;-76
2021/08/15 06:22:45;;;;;;;4.60;2.80;;;21.30;80.70;;;;;;5016962;28;20363;-75
2021/08/15 06:25:12;;;;;;;5.85;3.13;;;21.30;81.60;;;;;;5010861;28;20033;-75
2021/08/15 06:27:43;;;;;;;6.25;3.45;;;21.40;81.70;;;;;;5010649;28;20054;-75
2021/08/15 06:30:11;;;;;;;6.60;3.40;;;21.40;80.50;;;;;;4997291;28;20034;-76
2021/08/15 06:32:52;;;;;;;6.78;3.45;;;21.40;80.80;;;;;;4997699;28;20042;-76
2021/08/15 06:35:19;;;;;;;5.75;3.00;;;21.40;80.70;;;;;;4994960;28;20406;-76
2021/08/15 06:37:46;;;;;;;6.88;2.92;;;21.40;80.30;;;;;;4978000;28;20054;-75
2021/08/15 06:40:12;;;;;;;6.60;3.22;;;21.40;80.30;;;;;;4989177;28;20112;-76
2021/08/15 06:42:39;;;;;;;13.23;3.45;;;21.40;80.30;;;;;;5000415;28;20026;-75
2021/08/15 06:45:05;;;;;;;8.00;3.17;;;21.40;80.60;;;;;;5007076;28;20029;-75
2021/08/15 06:47:31;;;;;;;9.60;4.47;;;21.50;80.90;;;;;;5003511;28;20521;-75
2021/08/15 06:49:56;;;;;;;7.50;3.28;;;21.50;80.90;;;;;;5001305;28;20030;-75
2021/08/15 06:52:23;;;;;;;8.85;3.20;;;21.50;80.50;;;;;;4999846;28;20048;-75
2021/08/15 06:54:50;;;;;;;6.25;3.47;;;21.60;81.20;;;;;;5008778;28;20037;-75
2021/08/15 06:57:16;;;;;;;7.65;3.33;;;21.60;81.00;;;;;;5001835;28;20022;-76
2021/08/15 06:59:43;;;;;;;8.98;3.55;;;21.60;81.40;;;;;;5010876;28;20021;-76
2021/08/15 07:02:08;;;;;;;7.32;3.53;;;21.60;80.90;;;;;;5001810;28;20453;-75
2021/08/15 07:04:34;;;;;;;6.53;3.53;;;21.60;81.40;;;;;;4999668;28;20068;-75
2021/08/15 07:07:00;;;;;;;7.03;3.33;;;21.70;81.00;;;;;;5001298;28;20033;-77
2021/08/15 07:09:25;;;;;;;6.45;3.22;;;21.70;80.80;;;;;;5022205;28;20033;-76
2021/08/15 07:11:51;;;;;;;6.15;3.53;;;21.70;81.00;;;;;;5017766;28;20030;-75
2021/08/15 07:14:16;;;;;;;7.13;3.88;;;21.80;80.60;;;;;;4996252;28;20458;-76
2021/08/15 07:16:42;;;;;;;6.55;3.25;;;21.80;80.40;;;;;;4999695;28;20053;-75
2021/08/15 07:19:09;;;;;;;9.63;3.42;;;21.90;80.40;;;;;;4985572;28;20075;-76
2021/08/15 07:21:35;;;;;;;7.40;3.70;;;21.90;80.30;;;;;;5010542;28;20045;-75
2021/08/15 07:24:01;;;;;;;6.75;3.55;;;21.90;80.30;;;;;;4988988;28;20030;-76
2021/08/15 07:26:28;;;;;;;11.40;3.70;;;22.00;80.20;;;;;;4994765;28;20025;-77
2021/08/15 07:28:54;;;;;;;7.80;4.05;;;22.10;80.00;;;;;;4976455;28;20022;-76
2021/08/15 07:31:20;;;;;;;7.75;3.40;;;22.10;80.70;;;;;;4992319;28;20088;-77
2021/08/15 07:33:46;;;;;;;6.40;3.78;;;22.10;80.30;;;;;;4996132;28;20042;-77
2021/08/15 07:36:12;;;;;;;6.15;3.35;;;22.10;80.70;;;;;;4995432;28;20026;-77
2021/08/15 07:38:38;;;;;;;11.20;4.28;;;22.20;79.90;;;;;;4996103;28;20467;-76
2021/08/15 07:41:03;;;;;;;10.10;4.03;;;22.20;80.50;;;;;;5013213;28;20153;-77
2021/08/15 07:43:30;;;;;;;6.82;3.53;;;22.20;79.60;;;;;;4995195;28;20057;-77
2021/08/15 07:45:57;;;;;;;6.07;3.08;;;22.30;79.50;;;;;;4994130;28;20052;-76
2021/08/15 07:48:23;;;;;;;8.30;3.90;;;22.30;79.50;;;;;;5007990;28;20107;-76
2021/08/15 07:50:50;;;;;;;4.32;3.17;;;22.30;79.30;;;;;;5009063;28;20026;-76
2021/08/15 07:53:23;;;;;;;4.80;3.45;;;22.40;79.90;;;;;;4994301;28;20037;-77
2021/08/15 07:55:50;;;;;;;6.18;3.63;;;22.40;78.90;;;;;;5010953;28;20524;-76
2021/08/15 07:58:16;;;;;;;4.88;3.38;;;22.40;78.70;;;;;;4994077;28;20026;-77
2021/08/15 08:00:42;;;;;;;5.57;3.22;;;22.50;78.30;;;;;;5021224;28;20105;-77
2021/08/15 08:03:08;;;;;;;5.38;3.38;;;22.50;78.10;;;;;;4996461;28;20029;-77
2021/08/15 08:05:34;;;;;;;7.22;3.40;;;22.60;78.30;;;;;;4996621;28;20018;-77
2021/08/15 08:07:59;;;;;;;6.18;3.55;;;22.60;78.00;;;;;;5014129;28;20428;-76
2021/08/15 08:10:25;;;;;;;8.57;3.42;;;22.60;78.00;;;;;;4995694;28;20065;-76
2021/08/15 08:12:51;;;;;;;7.05;3.33;;;22.60;77.80;;;;;;4995647;28;20036;-76
2021/08/15 08:15:17;;;;;;;6.65;3.58;;;22.70;78.20;;;;;;5011581;28;20378;-76
2021/08/15 08:17:43;;;;;;;7.32;3.42;;;22.70;77.90;;;;;;4995598;28;20032;-77
2021/08/15 08:20:09;;;;;;;5.55;3.63;;;22.70;78.00;;;;;;4994751;28;20029;-77
2021/08/15 08:22:35;;;;;;;5.75;3.45;;;22.80;78.00;;;;;;5008605;28;20041;-77
2021/08/15 08:25:01;;;;;;;5.15;3.40;;;22.80;78.00;;;;;;4993403;28;20022;-77
2021/08/15 08:27:26;;;;;;;10.70;3.60;;;22.90;78.00;;;;;;4994522;28;20029;-77
2021/08/15 08:29:52;;;;;;;11.13;3.88;;;23.00;77.70;;;;;;4995871;28;20032;-77
2021/08/15 08:32:18;;;;;;;5.90;3.42;;;23.00;77.60;;;;;;4996980;28;20061;-76
2021/08/15 08:34:45;;;;;;;7.65;3.67;;;23.00;77.70;;;;;;5000997;28;20022;-76
2021/08/15 08:37:14;;;;;;;5.15;3.47;;;23.10;77.80;;;;;;4997982;28;20057;-77
2021/08/15 08:39:39;;;;;;;5.47;3.55;;;23.10;78.00;;;;;;5000465;28;20030;-76
2021/08/15 08:42:06;;;;;;;6.75;4.03;;;23.20;77.90;;;;;;4994632;28;20038;-76
2021/08/15 08:44:34;;;;;;;5.97;3.83;;;23.20;77.80;;;;;;4992560;28;20418;-77
2021/08/15 08:47:02;;;;;;;7.38;3.10;;;23.30;77.60;;;;;;4992424;28;20033;-77
2021/08/15 08:49:28;;;;;;;7.38;3.97;;;23.40;77.50;;;;;;4991394;28;20022;-77
2021/08/15 08:51:55;;;;;;;5.35;3.67;;;23.40;77.40;;;;;;4988694;28;20026;-77
2021/08/15 08:54:22;;;;;;;4.63;3.05;;;23.40;77.40;;;;;;5000402;28;20042;-77
2021/08/15 08:56:47;;;;;;;6.90;3.60;;;23.50;77.30;;;;;;5008254;28;20140;-76
2021/08/15 08:59:13;;;;;;;7.72;3.75;;;23.50;77.10;;;;;;4989515;28;20514;-77
2021/08/15 09:01:42;;;;;;;7.15;3.65;;;23.50;76.70;;;;;;4984962;28;20031;-76
2021/08/15 09:04:10;;;;;;;6.32;3.38;;;23.60;76.70;;;;;;4990640;28;20026;-77
2021/08/15 09:06:38;;;;;;;7.00;3.92;;;23.60;75.90;;;;;;4991942;28;20025;-76
2021/08/15 09:09:16;;;;;;;10.73;4.05;;;23.60;75.90;;;;;;4991160;28;20035;-77
2021/08/15 09:11:44;;;;;;;12.60;4.43;;;23.70;76.30;;;;;;4991059;28;20475;-79
2021/08/15 09:14:22;;;;;;;8.05;4.00;;;23.80;76.30;;;;;;4990469;28;20041;-76
2021/08/15 09:16:49;;;;;;;7.47;3.78;;;23.80;76.30;;;;;;4989330;28;20037;-77
2021/08/15 09:19:53;;;;;;;7.78;3.90;;;23.90;76.10;;;;;;4990873;28;20023;-77
2021/08/15 09:22:20;;;;;;;7.97;4.45;;;24.00;76.00;;;;;;5000068;28;20384;-77
2021/08/15 09:24:58;;;;;;;8.18;3.75;;;24.00;75.90;;;;;;4991154;28;20022;-77
2021/08/15 09:27:28;;;;;;;5.45;3.65;;;24.00;75.70;;;;;;4989880;28;20030;-77
2021/08/15 09:30:10;;;;;;;6.43;3.80;;;24.10;75.00;;;;;;4994359;28;20085;-77
2021/08/15 09:32:42;;;;;;;7.95;3.65;;;24.10;75.10;;;;;;4993936;28;20046;-77
2021/08/15 09:35:09;;;;;;;6.68;4.03;;;24.20;74.70;;;;;;4991259;28;20019;-78
2021/08/15 09:37:36;;;;;;;9.85;3.60;;;24.30;74.60;;;;;;4989205;28;20050;-78
2021/08/15 09:40:24;;;;;;;6.47;3.63;;;24.30;74.50;;;;;;4995085;28;20525;-78
2021/08/15 09:42:50;;;;;;;7.13;4.00;;;24.50;73.50;;;;;;5010676;28;20042;-76
2021/08/15 09:45:30;;;;;;;6.13;3.80;;;24.60;73.20;;;;;;4994159;28;20034;-78
2021/08/15 09:47:55;;;;;;;6.57;3.50;;;24.60;73.10;;;;;;4999768;28;20022;-76
2021/08/15 09:50:23;;;;;;;5.00;3.30;;;24.60;73.80;;;;;;4980225;28;20030;-76
2021/08/15 09:52:49;;;;;;;9.85;3.53;;;24.70;73.70;;;;;;4989177;28;20035;-76
2021/08/15 09:55:15;;;;;;;9.10;3.67;;;24.70;73.50;;;;;;4975598;28;20027;-76
2021/08/15 09:57:42;;;;;;;5.90;3.22;;;24.70;73.20;;;;;;4992010;28;20052;-76
2021/08/15 10:00:20;;;;;;;7.43;3.15;;;24.70;73.10;;;;;;4979087;28;20118;-77
2021/08/15 10:02:47;;;;;;;7.95;3.25;;;24.80;72.40;;;;;;4991595;28;20018;-75
2021/08/15 10:05:12;;;;;;;6.38;3.70;;;24.90;72.10;;;;;;4995304;28;20022;-76
2021/08/15 10:07:39;;;;;;;5.75;3.30;;;24.90;71.90;;;;;;4979322;28;20089;-76
2021/08/15 10:10:07;;;;;;;6.93;3.42;;;24.90;72.60;;;;;;4985728;28;20395;-75
2021/08/15 10:12:33;;;;;;;7.88;3.80;;;24.90;72.10;;;;;;4995511;28;20086;-76
2021/08/15 10:14:59;;;;;;;5.53;3.17;;;25.00;72.30;;;;;;4986317;28;20027;-76
2021/08/15 10:17:29;;;;;;;4.97;3.15;;;25.00;72.10;;;;;;4988285;28;20475;-76
2021/08/15 10:19:59;;;;;;;5.72;3.70;;;25.10;72.30;;;;;;4989867;28;20027;-76
2021/08/15 10:22:30;;;;;;;6.53;3.42;;;25.10;71.90;;;;;;4989762;28;20106;-76
2021/08/15 10:25:05;;;;;;;5.50;3.05;;;25.20;72.10;;;;;;4985436;28;20494;-79
2021/08/15 10:27:40;;;;;;;6.63;3.22;;;25.30;71.90;;;;;;4994957;28;20027;-77
2021/08/15 10:30:21;;;;;;;6.65;3.45;;;25.20;70.80;;;;;;4986212;28;20023;-76
2021/08/15 10:32:55;;;;;;;5.27;3.20;;;25.20;71.20;;;;;;4992131;28;20113;-75
2021/08/15 10:35:35;;;;;;;7.07;3.05;;;25.20;71.20;;;;;;4988361;28;20749;-76
2021/08/15 10:38:06;;;;;;;4.45;3.10;;;25.30;71.70;;;;;;4990493;28;20745;-75
2021/08/15 10:40:41;;;;;;;7.65;3.50;;;25.30;71.70;;;;;;4991678;28;20120;-74
2021/08/15 10:43:22;;;;;;;6.10;2.90;;;25.40;71.50;;;;;;4992223;28;20475;-73
2021/08/15 10:46:10;;;;;;;9.00;3.10;;;25.40;71.70;;;;;;4990702;28;20026;-72
2021/08/15 10:48:58;;;;;;;7.95;3.40;;;25.40;70.90;;;;;;4979188;28;20541;-72
2021/08/15 10:51:49;;;;;;;4.75;3.08;;;25.50;71.50;;;;;;4993459;28;20069;-72
2021/08/15 10:54:26;;;;;;;9.57;3.17;;;25.50;71.30;;;;;;4987630;28;20089;-73
2021/08/15 10:57:02;;;;;;;5.72;3.33;;;25.50;71.30;;;;;;4986694;28;20031;-73
2021/08/15 10:59:38;;;;;;;11.48;3.78;;;25.60;71.00;;;;;;4978317;28;20046;-73
2021/08/15 11:02:33;;;;;;;6.93;2.88;;;25.60;70.60;;;;;;4974911;28;20026;-72
2021/08/15 11:05:01;;;;;;;5.25;3.22;;;25.60;70.40;;;;;;5004451;28;20038;-73
2021/08/15 11:07:33;;;;;;;6.40;3.50;;;25.70;70.90;;;;;;4971770;28;20538;-73
2021/08/15 11:09:59;;;;;;;6.45;3.17;;;25.80;70.20;;;;;;4974890;28;20080;-72
2021/08/15 11:12:25;;;;;;;5.75;3.13;;;25.80;70.60;;;;;;4999155;28;20476;-73
2021/08/15 11:14:55;;;;;;;8.13;3.10;;;25.80;70.70;;;;;;4985104;28;20443;-73
2021/08/15 11:17:21;;;;;;;5.30;3.15;;;25.90;70.50;;;;;;4984789;28;20045;-73
2021/08/15 11:19:46;;;;;;;10.25;3.38;;;26.00;70.20;;;;;;4988490;28;20030;-72
2021/08/15 11:22:24;;;;;;;5.32;3.30;;;26.00;70.40;;;;;;4976397;28;20022;-72
2021/08/15 11:24:56;;;;;;;6.13;3.53;;;26.10;69.60;;;;;;4982250;28;20150;-74
2021/08/15 11:27:23;;;;;;;6.20;3.30;;;26.20;69.70;;;;;;4990955;28;20483;-73
2021/08/15 11:29:50;;;;;;;5.97;2.83;;;26.30;69.50;;;;;;4990775;28;20034;-72
2021/08/15 11:32:17;;;;;;;5.80;2.70;;;26.30;69.30;;;;;;4983682;28;20376;-73
2021/08/15 11:35:13;;;;;;;4.82;3.10;;;26.40;69.10;;;;;;4992271;28;20037;-72
2021/08/15 11:37:46;;;;;;;4.90;2.97;;;26.40;67.40;;;;;;4960431;28;1122159;-73
2021/08/15 11:40:24;;;;;;;7.80;3.15;;;26.40;67.60;;;;;;4987152;28;20052;-73
2021/08/15 11:43:09;;;;;;;5.30;3.30;;;26.50;67.10;;;;;;4994130;28;20034;-73
2021/08/15 11:45:37;;;;;;;7.93;2.72;;;26.70;67.60;;;;;;5007519;28;20060;-74
2021/08/15 11:48:23;;;;;;;7.22;2.70;;;26.70;67.90;;;;;;5012551;28;20026;-73
2021/08/15 11:50:55;;;;;;;5.00;2.50;;;26.80;67.30;;;;;;5011935;28;20038;-73
2021/08/15 11:53:24;;;;;;;4.13;2.90;;;26.80;67.60;;;;;;5009708;28;20059;-73
2021/08/15 11:55:51;;;;;;;5.43;3.00;;;26.90;66.50;;;;;;4994764;28;20057;-74
2021/08/15 11:58:18;;;;;;;3.63;2.67;;;27.10;66.20;;;;;;5011043;28;20044;-74
2021/08/15 12:00:44;;;;;;;5.05;3.30;;;27.10;66.40;;;;;;5012221;28;20489;-75
2021/08/15 12:03:24;;;;;;;4.93;2.88;;;27.10;66.20;;;;;;4989085;28;20052;-73
2021/08/15 12:05:55;;;;;;;4.95;2.80;;;27.20;66.10;;;;;;4989626;28;20026;-74
2021/08/15 12:08:37;;;;;;;5.47;3.10;;;27.30;67.40;;;;;;5012811;28;20068;-75
2021/08/15 12:11:30;;;;;;;4.35;3.00;;;27.40;65.50;;;;;;5002607;28;20029;-74
2021/08/15 12:14:08;;;;;;;9.50;3.10;;;27.50;64.30;;;;;;4990750;28;20045;-74
2021/08/15 12:16:35;;;;;;;7.60;3.38;;;27.50;64.60;;;;;;4990255;28;20037;-74
2021/08/15 12:19:01;;;;;;;7.93;3.50;;;27.50;64.80;;;;;;4985899;28;20033;-74
2021/08/15 12:21:29;;;;;;;5.05;3.05;;;27.60;64.90;;;;;;5010680;28;20033;-74
2021/08/15 12:24:10;;;;;;;5.30;3.50;;;27.70;64.10;;;;;;5009740;28;20030;-74
2021/08/15 12:26:43;;;;;;;5.75;3.55;;;27.80;63.90;;;;;;5006063;28;20038;-73
2021/08/15 12:29:27;;;;;;;8.15;3.45;;;27.80;64.70;;;;;;5012065;28;20022;-74
2021/08/15 12:32:05;;;;;;;4.65;2.92;;;27.90;64.70;;;;;;4980424;28;20109;-74
2021/08/15 12:34:32;;;;;;;6.25;3.40;;;28.10;63.70;;;;;;4999420;28;20049;-74
2021/08/15 12:36:59;;;;;;;5.45;3.45;;;28.20;63.60;;;;;;4983448;28;20074;-74
2021/08/15 12:39:27;;;;;;;7.47;3.30;;;28.30;62.80;;;;;;4986363;28;20122;-74
2021/08/15 12:41:58;;;;;;;5.75;3.60;;;28.50;63.20;;;;;;4983274;28;20033;-74
2021/08/15 12:44:27;;;;;;;7.03;3.50;;;28.60;63.30;;;;;;4987659;28;20037;-74
2021/08/15 12:47:05;;;;;;;6.72;3.70;;;28.80;62.80;;;;;;5003467;28;20030;-74
2021/08/15 12:49:46;;;;;;;6.70;3.30;;;29.00;62.10;;;;;;4981205;28;20033;-75
2021/08/15 12:52:25;;;;;;;5.30;3.70;;;29.20;60.50;;;;;;4991059;28;20030;-74